Lyman, WY

1:04 PM MDT on July 30, 2016 (GMT -0600)
Lyman, Wyoming | | Change Station
Active Advisory: Fire Weather Warning Active Notice: Record Report

Elev 6716 ft 41.33 °N, 110.29 °W | Updated 3 seconds ago

Scattered Clouds
Scattered Clouds
87.3 °F
Feels Like 84 °F
N
6.9
Wind Variable Wind from East
Gusts 6.9 mph

Today
High -- | Low -- °F
--% Chance of Precip.
Yesterday
High -- | Low -- °F
Precip. -- in
Pressure 30.19 in
Visibility 10.0 miles
Clouds Scattered Clouds 11000 ft
Heat Index 84 °F
Dew Point 40 °F
Humidity 19%
Rainfall 0.00 in
Snow Depth Not available.
6:15 AM 8:39 PM
Waning Crescent, 11% visible
METAR KFBR 301855Z AUTO 25015G20KT 10SM SCT110 32/M01 A3019 RMK AO2 LTG DSNT NW T03211006
Pressure 30.19 in
Visibility 10.0 miles
Clouds Scattered Clouds 11000 ft
Heat Index 84 °F
Dew Point 40 °F
Humidity 19%
Rainfall 0.00 in
Snow Depth Not available.
6:15 AM 8:39 PM
Waning Crescent, 11% visible
METAR KFBR 301855Z AUTO 25015G20KT 10SM SCT110 32/M01 A3019 RMK AO2 LTG DSNT NW T03211006

10-Day Weather Forecast

Almanac

Astronomy

Jul. 30, 2016 Rise Set
Actual Time
Civil Twilight
Nautical Twilight
Astronomical Twilight
Moon
Length of Visible Light
Length of Day
Tomorrow will be .
, % of the Moon is Illuminated

Today's Extremes

State Highs State Lows

Community

WunderPhotos

Upload Photos

1,928,621 photos uploaded!

WunderBlog® & News

Nearby

Air Quality

  Air Quality AQ Index Pollutant
Not available.

Snow Depth

Station Depth Elevation

Earthquake Activity

City Distance Mag. Time & Date
Minimum magnitude displayed is 2.5.

Coastal Water Temperatures

Place Temperature

Stations

Nearby Weather Stations

Station Location Temp. Windchill Dew Point Humidity Wind Precip. Elev Updated Type
                   

Watches & Warnings

Fire Weather Warning
Issued: 11:58 AM MDT Jul. 30, 2016 – National Weather Service

... Red flag warning in effect until 9 PM MDT this evening for low
relative humidity... hot temperatures... breezy conditions and a
Haines index of 5 or 6...

The National Weather Service in Riverton has issued a red flag
warning... which is in effect until 9 PM MDT this evening.

* Affected area... fire weather zone 277.

* Wind... west 15 to 20 mph with gusts to 30 mph.

* Humidity... as low as 13 to 15 percent.

* Thunderstorms... widely scattered dry lightning storms with
strong and erratic wind gusts as high as 50 mph.

* Haines index... 5 to 6

* impacts... any fires that develop will likely spread rapidly.
Outdoor burning is not recommended.

Precautionary/preparedness actions...

A red flag warning means that critical fire weather conditions
are either occurring now... .or will shortly. A combination of
strong winds... low relative humidity... and warm temperatures can
contribute to extreme fire behavior.